Time;durP1;ratioP1;P1;durP2;ratioP2;P2;SDS_P1;SDS_P2;PMS_P1;PMS_P2;Temp;Humidity;BMP_temperature;BMP_pressure;BME280_temperature;BME280_humidity;BME280_pressure;Samples;Min_cycle;Max_cycle;Signal;HPM_P1;HPM_P2
2023/05/09 00:01:57;;;;;;;91.43;56.88;;;14.80;99.90;;;;;;4996091;28;20076;-64
2023/05/09 00:04:23;;;;;;;100.47;60.42;;;14.70;99.90;;;;;;4996456;28;20095;-63
2023/05/09 00:06:49;;;;;;;99.70;60.85;;;14.50;99.90;;;;;;4994313;28;20590;-65
2023/05/09 00:09:15;;;;;;;96.47;58.58;;;14.40;99.90;;;;;;5006713;28;20041;-65
2023/05/09 00:11:41;;;;;;;95.22;58.92;;;14.40;99.90;;;;;;5024945;28;20042;-65
2023/05/09 00:14:07;;;;;;;100.40;61.60;;;14.30;99.90;;;;;;4998265;28;20050;-64
2023/05/09 00:16:33;;;;;;;93.00;58.33;;;14.30;99.90;;;;;;4977970;28;20431;-66
2023/05/09 00:18:59;;;;;;;99.28;58.42;;;14.10;99.90;;;;;;4989134;28;20042;-65
2023/05/09 00:21:24;;;;;;;105.22;59.92;;;14.20;99.90;;;;;;5027695;28;20137;-64
2023/05/09 00:23:50;;;;;;;106.43;62.17;;;14.10;99.90;;;;;;4992105;28;20050;-68
2023/05/09 00:26:16;;;;;;;103.93;61.47;;;14.20;99.90;;;;;;4996590;28;20080;-64
2023/05/09 00:28:42;;;;;;;110.85;63.60;;;14.10;99.90;;;;;;5022313;28;20052;-65
2023/05/09 00:31:07;;;;;;;100.15;59.67;;;14.00;99.90;;;;;;5022949;28;20076;-64
2023/05/09 00:33:33;;;;;;;105.25;61.40;;;14.00;99.90;;;;;;4998219;28;20050;-64
2023/05/09 00:35:59;;;;;;;100.65;54.78;;;14.00;99.90;;;;;;5029777;28;20092;-65
2023/05/09 00:38:25;;;;;;;90.93;51.97;;;13.90;99.90;;;;;;4994587;28;20060;-65
2023/05/09 00:40:50;;;;;;;98.07;53.63;;;13.90;99.90;;;;;;4995185;28;20042;-65
2023/05/09 00:43:17;;;;;;;92.65;50.80;;;13.90;99.90;;;;;;4995786;28;20061;-64
2023/05/09 00:45:44;;;;;;;98.18;50.88;;;13.80;99.90;;;;;;4996384;28;20085;-66
2023/05/09 00:48:10;;;;;;;107.70;52.80;;;13.70;99.90;;;;;;4993626;28;20049;-64
2023/05/09 00:50:36;;;;;;;104.10;52.83;;;13.80;99.90;;;;;;4994879;28;20048;-64
2023/05/09 00:53:03;;;;;;;114.90;54.58;;;13.70;99.90;;;;;;5006707;28;20141;-64
2023/05/09 00:55:29;;;;;;;109.85;52.88;;;13.80;99.90;;;;;;4978526;28;20046;-63
2023/05/09 00:57:55;;;;;;;110.15;53.05;;;13.70;99.90;;;;;;4992178;28;20052;-64
2023/05/09 01:00:21;;;;;;;113.90;52.95;;;13.80;99.90;;;;;;5011726;28;20033;-64
2023/05/09 01:02:51;;;;;;;110.75;55.75;;;13.80;99.90;;;;;;4996138;28;20065;-65
2023/05/09 01:05:18;;;;;;;116.05;54.05;;;13.80;99.90;;;;;;4995105;28;20038;-64
2023/05/09 01:07:49;;;;;;;112.55;56.88;;;13.90;99.90;;;;;;4995161;28;20392;-64
2023/05/09 01:19:46;;;;;;;133.27;67.53;;;14.10;99.90;;;;;;4987688;28;20038;-64
2023/05/09 01:22:34;;;;;;;132.15;67.40;;;14.00;99.90;;;;;;4968113;28;20608;-64
2023/05/09 01:25:49;;;;;;;129.27;67.22;;;14.00;99.90;;;;;;4966030;28;20148;-64
2023/05/09 01:28:36;;;;;;;133.38;69.60;;;14.10;99.90;;;;;;4954663;28;20062;-64
2023/05/09 01:31:04;;;;;;;139.85;73.78;;;14.20;99.90;;;;;;4966103;28;20421;-64
2023/05/09 01:33:32;;;;;;;133.43;71.43;;;14.10;99.90;;;;;;4988955;28;21007;-64
2023/05/09 01:36:03;;;;;;;119.13;67.57;;;14.20;99.90;;;;;;4949131;28;20051;-63
2023/05/09 01:38:30;;;;;;;120.03;65.90;;;14.20;99.90;;;;;;4949888;28;20057;-64
2023/05/09 01:40:58;;;;;;;106.40;60.55;;;14.20;99.90;;;;;;4966083;28;20090;-64
2023/05/09 01:43:27;;;;;;;103.70;58.42;;;14.10;99.90;;;;;;4965953;28;20052;-64
2023/05/09 01:45:54;;;;;;;101.10;58.58;;;14.10;99.90;;;;;;4982382;28;20086;-64
2023/05/09 01:48:25;;;;;;;105.63;61.33;;;14.10;99.90;;;;;;4984849;28;20494;-64
2023/05/09 01:50:53;;;;;;;101.05;56.97;;;14.30;99.90;;;;;;4957003;28;20076;-64
2023/05/09 01:53:20;;;;;;;101.68;57.72;;;14.30;99.90;;;;;;4978312;28;20523;-64
2023/05/09 01:55:47;;;;;;;84.93;50.33;;;14.20;99.90;;;;;;4952310;28;20058;-65
2023/05/09 01:58:15;;;;;;;70.10;44.42;;;14.40;99.90;;;;;;4966167;28;20092;-64
2023/05/09 02:00:42;;;;;;;72.88;45.70;;;14.40;99.90;;;;;;4983985;28;20053;-64
2023/05/09 02:03:08;;;;;;;73.15;45.92;;;14.20;99.90;;;;;;4986126;28;20053;-65
2023/05/09 02:05:36;;;;;;;73.25;45.80;;;14.40;99.90;;;;;;4992094;28;20054;-64
2023/05/09 02:08:01;;;;;;;70.45;45.92;;;14.30;99.90;;;;;;4989029;28;20087;-67
2023/05/09 02:10:28;;;;;;;57.53;38.35;;;14.40;99.90;;;;;;5004034;28;20077;-64
2023/05/09 02:12:55;;;;;;;52.15;35.90;;;14.40;99.90;;;;;;4989000;28;20050;-66
2023/05/09 02:15:21;;;;;;;35.10;26.83;;;14.50;99.90;;;;;;5034040;28;20086;-64
2023/05/09 02:17:47;;;;;;;31.45;24.77;;;14.30;99.90;;;;;;5003691;28;20125;-64
2023/05/09 02:20:13;;;;;;;24.60;21.55;;;14.40;99.90;;;;;;5005310;28;20563;-64
2023/05/09 02:22:40;;;;;;;26.02;20.70;;;14.30;99.90;;;;;;4987861;28;20539;-66
2023/05/09 02:25:07;;;;;;;21.08;18.73;;;14.30;99.90;;;;;;4987883;28;20053;-65
2023/05/09 02:27:33;;;;;;;18.60;16.80;;;14.50;99.90;;;;;;5020947;28;20416;-64
2023/05/09 02:30:05;;;;;;;17.42;15.63;;;14.30;99.90;;;;;;4991820;28;20042;-64
2023/05/09 02:32:33;;;;;;;18.40;16.58;;;14.40;99.90;;;;;;5019463;28;20061;-64
2023/05/09 02:35:00;;;;;;;18.05;16.27;;;14.20;99.90;;;;;;4986595;28;20051;-64
2023/05/09 02:37:27;;;;;;;17.40;15.75;;;14.30;99.90;;;;;;4987429;28;20049;-65
2023/05/09 02:39:54;;;;;;;18.13;16.35;;;14.20;99.90;;;;;;5001476;28;20077;-64
2023/05/09 02:42:24;;;;;;;17.23;15.63;;;14.30;99.90;;;;;;5004387;28;20085;-65
2023/05/09 02:44:53;;;;;;;17.40;15.80;;;14.20;99.90;;;;;;4988114;28;20042;-64
2023/05/09 02:47:20;;;;;;;16.77;15.27;;;14.20;99.90;;;;;;5003551;28;20097;-64
2023/05/09 02:49:46;;;;;;;17.50;16.00;;;14.10;99.90;;;;;;5008227;28;20107;-65
2023/05/09 02:52:12;;;;;;;17.15;15.65;;;14.20;99.90;;;;;;5023985;28;20341;-64
2023/05/09 02:54:38;;;;;;;17.90;16.20;;;14.20;99.90;;;;;;5005473;28;20050;-66
2023/05/09 02:57:04;;;;;;;17.45;15.85;;;14.20;99.90;;;;;;5008057;28;20044;-64
2023/05/09 02:59:30;;;;;;;17.73;16.02;;;14.10;99.90;;;;;;5006852;28;20105;-65
2023/05/09 03:01:56;;;;;;;17.85;16.10;;;14.10;99.90;;;;;;4972160;28;20045;-65
2023/05/09 03:04:24;;;;;;;17.50;15.90;;;14.10;99.90;;;;;;4970925;28;20405;-65
2023/05/09 03:06:50;;;;;;;16.90;15.10;;;14.10;99.90;;;;;;5003211;28;20671;-64
2023/05/09 03:09:16;;;;;;;17.08;15.57;;;14.10;99.90;;;;;;5004598;28;20042;-66
2023/05/09 03:11:42;;;;;;;17.85;16.17;;;14.10;99.90;;;;;;5005398;28;20038;-64
2023/05/09 03:14:09;;;;;;;18.10;16.40;;;14.00;99.90;;;;;;5022494;28;20200;-64
2023/05/09 03:16:35;;;;;;;17.77;16.17;;;14.00;99.90;;;;;;4971460;28;20117;-63
2023/05/09 03:19:01;;;;;;;16.95;15.45;;;14.00;99.90;;;;;;5003151;28;20169;-65
2023/05/09 03:21:27;;;;;;;17.98;16.25;;;14.00;99.90;;;;;;4989870;28;20085;-64
2023/05/09 03:23:53;;;;;;;18.08;16.27;;;14.10;99.90;;;;;;4990356;28;20054;-65
2023/05/09 03:26:19;;;;;;;18.17;16.35;;;14.10;99.90;;;;;;5006614;28;20052;-63
2023/05/09 03:28:45;;;;;;;17.95;16.15;;;14.00;99.90;;;;;;4990959;28;20053;-64
2023/05/09 03:31:11;;;;;;;18.20;16.23;;;14.10;99.90;;;;;;4999131;28;20056;-64
2023/05/09 03:33:37;;;;;;;18.95;17.17;;;14.00;99.90;;;;;;5041408;28;20061;-64
2023/05/09 03:36:04;;;;;;;18.95;17.08;;;14.10;99.90;;;;;;5008237;28;20049;-64
2023/05/09 03:38:29;;;;;;;20.00;18.02;;;14.10;99.90;;;;;;5007599;28;20049;-65
2023/05/09 03:40:55;;;;;;;18.77;16.88;;;14.10;99.90;;;;;;5025999;28;20037;-64
2023/05/09 03:43:21;;;;;;;19.45;17.58;;;14.10;99.90;;;;;;5025060;28;20069;-64
2023/05/09 03:45:46;;;;;;;18.80;16.88;;;14.10;99.90;;;;;;5001510;28;20053;-64
2023/05/09 03:48:12;;;;;;;19.27;17.30;;;14.20;99.90;;;;;;5008440;28;20054;-64
2023/05/09 03:50:38;;;;;;;18.67;16.88;;;14.20;99.90;;;;;;5008999;28;20050;-65
2023/05/09 03:53:03;;;;;;;20.75;18.70;;;14.20;99.90;;;;;;4976473;28;20471;-64
2023/05/09 03:55:29;;;;;;;19.02;17.25;;;14.20;99.90;;;;;;5005086;28;20161;-64
2023/05/09 03:57:55;;;;;;;20.00;17.83;;;14.00;99.90;;;;;;5001919;28;20042;-64
2023/05/09 04:00:21;;;;;;;19.48;17.58;;;14.10;99.90;;;;;;5004744;28;20779;-64
2023/05/09 04:02:47;;;;;;;21.27;19.13;;;14.10;99.90;;;;;;5005995;28;20046;-64
2023/05/09 04:05:14;;;;;;;22.63;20.20;;;14.10;99.90;;;;;;4987808;28;20129;-64
2023/05/09 04:07:40;;;;;;;20.65;18.55;;;14.10;99.90;;;;;;4975336;28;20050;-65
2023/05/09 04:10:07;;;;;;;22.40;20.17;;;14.00;99.90;;;;;;4989621;28;20588;-64
2023/05/09 04:12:32;;;;;;;22.30;19.92;;;14.10;99.90;;;;;;4990800;28;20046;-64
2023/05/09 04:14:58;;;;;;;22.17;19.77;;;14.10;99.90;;;;;;4975206;28;20054;-65
2023/05/09 04:17:24;;;;;;;25.20;19.77;;;14.00;99.90;;;;;;4982249;28;20042;-66
2023/05/09 04:19:50;;;;;;;22.50;20.30;;;14.00;99.90;;;;;;5007629;28;20377;-64
2023/05/09 04:22:15;;;;;;;22.05;19.88;;;14.00;99.90;;;;;;5006187;28;20158;-65
2023/05/09 04:24:41;;;;;;;23.52;21.15;;;14.00;99.90;;;;;;4991412;28;20493;-64
2023/05/09 04:27:07;;;;;;;21.98;19.77;;;14.10;99.90;;;;;;4993448;28;20046;-64
2023/05/09 04:29:33;;;;;;;20.80;18.70;;;14.10;99.90;;;;;;5005731;28;20117;-64
2023/05/09 04:32:00;;;;;;;21.33;18.48;;;14.10;99.90;;;;;;5004149;28;20105;-64
2023/05/09 04:34:26;;;;;;;23.63;20.05;;;14.00;99.90;;;;;;4990020;28;20485;-65
2023/05/09 04:36:52;;;;;;;22.23;19.92;;;14.20;99.90;;;;;;4972903;28;20041;-66
2023/05/09 04:39:18;;;;;;;19.67;17.67;;;14.20;99.90;;;;;;4988564;28;20138;-64
2023/05/09 04:41:46;;;;;;;20.02;17.92;;;14.20;99.90;;;;;;4975106;28;20465;-65
2023/05/09 04:44:12;;;;;;;19.95;17.95;;;14.20;99.90;;;;;;5007626;28;20056;-64
2023/05/09 04:46:39;;;;;;;19.20;17.35;;;14.20;99.90;;;;;;4991083;28;20038;-64
2023/05/09 04:49:05;;;;;;;19.52;17.58;;;14.20;99.90;;;;;;4999455;28;20129;-64
2023/05/09 04:51:32;;;;;;;19.65;17.70;;;14.30;99.90;;;;;;5005514;28;20468;-64
2023/05/09 04:54:18;;;;;;;19.77;17.77;;;14.30;99.90;;;;;;4991572;28;20072;-64
2023/05/09 04:56:44;;;;;;;21.10;18.90;;;14.40;99.90;;;;;;5003036;28;20077;-65
2023/05/09 04:59:10;;;;;;;21.23;19.02;;;14.40;99.90;;;;;;4979459;28;20128;-64
2023/05/09 05:01:35;;;;;;;20.33;18.33;;;14.50;99.90;;;;;;4988480;28;20046;-65
2023/05/09 05:04:01;;;;;;;20.55;18.52;;;14.40;99.90;;;;;;5004058;28;20046;-65
2023/05/09 05:06:27;;;;;;;20.33;18.08;;;14.50;99.90;;;;;;5009003;28;20042;-64
2023/05/09 05:08:52;;;;;;;20.88;18.98;;;14.40;99.90;;;;;;5022979;28;20049;-65
2023/05/09 05:11:19;;;;;;;20.13;17.98;;;14.50;99.90;;;;;;4987523;28;20412;-64
2023/05/09 05:13:45;;;;;;;20.02;18.05;;;14.40;99.90;;;;;;4990346;28;20042;-66
2023/05/09 05:16:10;;;;;;;20.77;18.63;;;14.60;99.90;;;;;;5006269;28;20053;-65
2023/05/09 05:18:36;;;;;;;21.27;19.25;;;14.50;99.90;;;;;;5015528;28;20042;-64
2023/05/09 05:21:02;;;;;;;20.70;18.50;;;14.50;99.90;;;;;;4954445;28;20101;-64
2023/05/09 05:23:28;;;;;;;19.95;18.05;;;14.50;99.90;;;;;;4993868;28;20226;-64
2023/05/09 05:25:53;;;;;;;20.65;18.33;;;14.60;99.90;;;;;;4970570;28;20373;-65
2023/05/09 05:28:19;;;;;;;21.52;19.35;;;14.70;99.90;;;;;;5003612;28;20061;-64
2023/05/09 05:30:45;;;;;;;22.20;19.48;;;14.80;99.90;;;;;;4954365;28;20096;-64
2023/05/09 05:33:10;;;;;;;20.92;18.92;;;14.70;99.90;;;;;;4987020;28;20528;-64
2023/05/09 05:35:36;;;;;;;22.08;19.77;;;14.70;99.90;;;;;;4987278;28;20101;-64
2023/05/09 05:38:21;;;;;;;20.80;18.60;;;14.70;99.90;;;;;;5018758;28;20052;-64
2023/05/09 05:40:47;;;;;;;20.83;18.83;;;14.80;99.90;;;;;;4986570;28;20038;-64
2023/05/09 05:43:13;;;;;;;20.92;18.75;;;15.00;96.10;;;;;;4986021;28;20053;-64
2023/05/09 05:45:39;;;;;;;19.48;17.48;;;15.00;65.80;;;;;;4990753;28;20050;-64
2023/05/09 05:48:04;;;;;;;20.77;18.77;;;15.10;23.50;;;;;;5019824;28;20042;-65
2023/05/09 05:50:30;;;;;;;20.25;18.20;;;15.10;11.40;;;;;;4974471;28;20054;-65
2023/05/09 05:52:56;;;;;;;22.13;19.73;;;15.20;14.40;;;;;;4972984;28;20733;-66
2023/05/09 05:55:21;;;;;;;21.95;19.65;;;15.10;7.70;;;;;;4975505;28;20058;-65
2023/05/09 05:57:47;;;;;;;21.02;19.02;;;15.20;2.60;;;;;;4969440;28;20041;-65
2023/05/09 06:00:13;;;;;;;21.65;19.33;;;15.30;1.10;;;;;;4966015;28;20045;-66
2023/05/09 06:02:43;;;;;;;19.05;17.05;;;15.40;1.00;;;;;;4955736;28;20082;-66
2023/05/09 06:05:10;;;;;;;20.55;18.45;;;15.50;1.00;;;;;;4956246;28;20050;-66
2023/05/09 06:07:36;;;;;;;21.17;19.08;;;15.40;1.00;;;;;;4972513;28;20054;-65
2023/05/09 06:10:03;;;;;;;22.45;20.25;;;15.50;1.00;;;;;;4975178;28;20539;-66
2023/05/09 06:12:29;;;;;;;20.17;18.27;;;15.50;1.00;;;;;;4986976;28;20061;-66
2023/05/09 06:14:54;;;;;;;20.90;18.80;;;15.60;1.00;;;;;;5005873;28;20121;-65
2023/05/09 06:17:20;;;;;;;21.38;19.35;;;15.60;1.00;;;;;;4971133;28;20511;-65
2023/05/09 06:19:46;;;;;;;20.70;18.65;;;15.70;1.00;;;;;;4982329;28;20118;-66
2023/05/09 06:22:11;;;;;;;22.23;19.92;;;15.60;1.00;;;;;;4999694;28;20058;-66
2023/05/09 06:24:37;;;;;;;20.65;18.60;;;15.70;1.00;;;;;;4982906;28;20478;-65
2023/05/09 06:27:03;;;;;;;20.52;18.63;;;15.80;1.00;;;;;;4970073;28;20057;-66
2023/05/09 06:29:29;;;;;;;21.17;19.27;;;15.80;99.90;;;;;;4956036;28;20169;-65
2023/05/09 06:31:54;;;;;;;22.35;20.25;;;15.70;99.90;;;;;;4970944;28;20456;-66
2023/05/09 06:34:20;;;;;;;20.88;18.80;;;15.80;99.90;;;;;;4972018;28;20046;-65
2023/05/09 06:36:46;;;;;;;22.35;20.23;;;15.80;99.90;;;;;;4987304;28;20042;-65
2023/05/09 06:39:12;;;;;;;21.70;19.50;;;15.80;99.90;;;;;;4990881;28;20066;-65
2023/05/09 06:41:38;;;;;;;22.63;20.10;;;15.90;99.90;;;;;;4979252;28;20578;-65
2023/05/09 06:44:03;;;;;;;21.58;19.58;;;15.90;99.90;;;;;;4971371;28;20344;-65
2023/05/09 06:46:29;;;;;;;22.33;20.23;;;15.80;99.90;;;;;;4954658;28;20042;-65
2023/05/09 06:48:55;;;;;;;22.48;20.38;;;15.90;99.90;;;;;;4948617;28;20053;-66
2023/05/09 06:51:21;;;;;;;21.90;19.80;;;15.80;99.90;;;;;;4990491;28;20077;-65
2023/05/09 06:53:46;;;;;;;22.20;20.02;;;15.80;99.90;;;;;;4967517;28;20153;-66
2023/05/09 06:56:12;;;;;;;23.17;20.80;;;15.80;99.90;;;;;;4973618;28;20046;-66
2023/05/09 06:58:38;;;;;;;21.30;19.30;;;15.90;99.90;;;;;;4999487;28;20038;-65
2023/05/09 07:01:04;;;;;;;22.75;20.52;;;15.80;99.90;;;;;;4958369;28;20034;-66
2023/05/09 07:03:30;;;;;;;23.55;21.13;;;15.90;99.90;;;;;;4991527;28;20045;-65
2023/05/09 07:05:57;;;;;;;22.35;20.25;;;16.00;99.90;;;;;;4964062;28;20301;-66
2023/05/09 07:08:24;;;;;;;24.70;20.30;;;16.00;99.90;;;;;;4977565;28;20566;-65
2023/05/09 07:10:49;;;;;;;21.27;19.08;;;16.20;99.90;;;;;;4957211;28;20050;-66
2023/05/09 07:13:15;;;;;;;20.88;18.85;;;16.30;99.90;;;;;;4977253;28;20222;-65
2023/05/09 07:15:41;;;;;;;21.38;19.27;;;16.50;99.90;;;;;;4993210;28;20073;-64
2023/05/09 07:18:07;;;;;;;20.75;18.75;;;16.50;99.90;;;;;;4981674;28;20125;-64
2023/05/09 07:20:32;;;;;;;20.42;18.52;;;16.70;99.90;;;;;;5024587;28;20208;-66
2023/05/09 07:22:58;;;;;;;21.25;19.20;;;16.90;99.90;;;;;;4991298;28;20046;-65
2023/05/09 07:25:24;;;;;;;20.83;18.83;;;17.00;99.90;;;;;;4942343;28;20384;-66
2023/05/09 07:27:50;;;;;;;20.30;18.30;;;17.00;99.90;;;;;;4956768;28;20223;-66
2023/05/09 07:30:16;;;;;;;21.52;19.42;;;16.90;99.90;;;;;;4974002;28;20540;-65
2023/05/09 07:32:41;;;;;;;21.33;19.15;;;16.80;99.90;;;;;;4978661;28;20408;-65
2023/05/09 07:35:07;;;;;;;22.65;20.48;;;16.80;99.90;;;;;;4979918;28;20055;-65
2023/05/09 07:37:33;;;;;;;22.42;20.38;;;16.70;99.90;;;;;;4977959;28;20057;-66
2023/05/09 07:39:59;;;;;;;21.77;19.63;;;16.70;99.90;;;;;;4964724;28;20104;-65
2023/05/09 07:42:25;;;;;;;24.60;22.27;;;16.60;99.90;;;;;;5004081;28;20038;-65
2023/05/09 07:44:51;;;;;;;23.30;21.10;;;16.40;99.90;;;;;;4944462;28;20097;-65
2023/05/09 07:47:16;;;;;;;24.73;22.27;;;16.50;99.90;;;;;;4943258;28;20632;-65
2023/05/09 07:49:44;;;;;;;24.45;21.85;;;16.40;99.90;;;;;;4981060;28;20042;-65
2023/05/09 07:52:09;;;;;;;25.98;23.17;;;16.40;99.90;;;;;;4981282;28;20121;-64
2023/05/09 07:54:35;;;;;;;28.13;25.10;;;16.50;99.90;;;;;;4961879;28;20039;-65
2023/05/09 07:57:01;;;;;;;26.83;23.77;;;16.40;99.90;;;;;;4998201;28;20448;-65
2023/05/09 07:59:26;;;;;;;28.42;23.95;;;16.50;99.90;;;;;;4979678;28;20050;-66
2023/05/09 08:01:52;;;;;;;31.58;28.17;;;16.50;99.90;;;;;;4981400;28;20042;-65
2023/05/09 08:04:18;;;;;;;33.72;27.27;;;16.50;99.90;;;;;;5011782;28;20812;-64
2023/05/09 08:06:43;;;;;;;34.70;29.55;;;16.50;99.90;;;;;;4992331;28;20049;-65
2023/05/09 08:09:09;;;;;;;37.35;28.80;;;16.70;99.90;;;;;;4992870;28;20041;-65
2023/05/09 08:11:35;;;;;;;37.47;30.80;;;16.90;99.90;;;;;;4975502;28;20412;-65
2023/05/09 08:14:01;;;;;;;38.50;31.27;;;17.00;99.90;;;;;;4958963;28;20063;-65
2023/05/09 08:16:27;;;;;;;36.63;31.65;;;17.10;99.90;;;;;;4993659;28;20050;-66
2023/05/09 08:18:53;;;;;;;38.30;31.58;;;17.20;99.90;;;;;;4990712;28;20045;-65
2023/05/09 08:21:20;;;;;;;31.83;27.48;;;17.20;99.90;;;;;;5016436;28;20054;-66
2023/05/09 08:23:46;;;;;;;36.58;28.75;;;17.30;99.90;;;;;;4991929;28;20129;-65
2023/05/09 08:26:12;;;;;;;34.40;28.77;;;17.10;99.90;;;;;;5008734;28;20050;-66
2023/05/09 08:28:37;;;;;;;33.92;30.27;;;17.10;99.90;;;;;;4973579;28;20065;-65
2023/05/09 08:31:03;;;;;;;36.38;31.00;;;17.00;99.90;;;;;;4986030;28;20034;-67
2023/05/09 08:33:29;;;;;;;35.08;30.23;;;16.90;99.90;;;;;;4992029;28;20049;-66
2023/05/09 08:35:55;;;;;;;39.15;30.48;;;16.80;99.90;;;;;;4988619;28;20042;-65
2023/05/09 08:38:21;;;;;;;37.05;29.88;;;16.80;99.90;;;;;;4970320;28;20049;-66
2023/05/09 08:40:47;;;;;;;46.40;33.58;;;16.70;99.90;;;;;;4985661;28;20273;-65
2023/05/09 08:43:16;;;;;;;45.70;32.90;;;16.60;99.90;;;;;;4975686;28;20496;-66
2023/05/09 08:45:50;;;;;;;43.28;33.25;;;16.50;99.90;;;;;;4973905;28;20449;-67
2023/05/09 08:48:16;;;;;;;44.17;32.63;;;16.50;99.90;;;;;;4976469;28;20301;-66
2023/05/09 08:50:46;;;;;;;40.95;31.77;;;16.40;99.90;;;;;;4975748;28;20400;-65
2023/05/09 08:53:12;;;;;;;46.25;34.08;;;16.30;99.90;;;;;;4975077;28;20064;-65
2023/05/09 08:55:39;;;;;;;52.25;36.60;;;16.40;99.90;;;;;;4971588;28;20049;-65
2023/05/09 08:58:05;;;;;;;51.90;36.55;;;16.40;99.90;;;;;;5006526;28;20099;-65
2023/05/09 09:00:32;;;;;;;50.65;36.55;;;16.40;99.90;;;;;;4991788;28;20195;-66
2023/05/09 09:03:01;;;;;;;51.00;38.22;;;16.30;99.90;;;;;;4973087;28;20057;-65
2023/05/09 09:05:30;;;;;;;51.03;37.92;;;16.30;99.90;;;;;;4956519;28;20390;-66
2023/05/09 09:07:57;;;;;;;57.33;38.00;;;16.40;99.90;;;;;;5022515;28;20061;-65
2023/05/09 09:10:26;;;;;;;58.05;38.40;;;16.30;99.90;;;;;;4990962;28;20030;-65
2023/05/09 09:12:53;;;;;;;54.65;39.28;;;16.40;99.90;;;;;;4985178;28;20050;-65
2023/05/09 09:15:21;;;;;;;55.88;39.25;;;16.50;99.90;;;;;;4973651;28;20512;-66
2023/05/09 09:17:49;;;;;;;55.03;38.63;;;16.50;99.90;;;;;;4974522;28;20053;-66
2023/05/09 09:20:17;;;;;;;58.83;39.17;;;16.60;99.90;;;;;;4973304;28;20042;-65
2023/05/09 09:22:46;;;;;;;60.50;39.72;;;16.80;99.90;;;;;;4973433;28;20270;-65
2023/05/09 09:25:12;;;;;;;57.45;38.47;;;17.00;99.90;;;;;;4988720;28;20049;-65
2023/05/09 09:27:38;;;;;;;63.30;40.85;;;17.20;99.90;;;;;;4989455;28;20050;-66
2023/05/09 09:30:08;;;;;;;62.70;40.67;;;17.50;99.90;;;;;;4974454;28;20396;-64
2023/05/09 09:32:34;;;;;;;60.08;40.47;;;17.80;99.90;;;;;;4955874;28;20042;-65
2023/05/09 09:35:08;;;;;;;55.97;36.67;;;18.20;99.90;;;;;;4956158;28;20096;-66
2023/05/09 09:37:35;;;;;;;55.78;38.17;;;18.60;99.90;;;;;;5004716;28;20038;-66
2023/05/09 09:40:03;;;;;;;57.53;37.45;;;18.70;62.80;;;;;;4991128;28;20371;-66
2023/05/09 09:42:46;;;;;;;57.88;38.72;;;18.90;13.40;;;;;;4990955;28;20426;-65
2023/05/09 09:45:14;;;;;;;57.20;40.00;;;18.90;1.00;;;;;;4974463;28;20049;-66
2023/05/09 09:47:42;;;;;;;60.35;39.63;;;19.00;1.00;;;;;;4973648;28;20056;-66
2023/05/09 09:50:16;;;;;;;56.85;38.33;;;18.90;1.00;;;;;;5005098;28;20210;-64
2023/05/09 09:52:50;;;;;;;55.75;37.65;;;19.00;1.00;;;;;;4954524;28;20053;-65
2023/05/09 09:55:16;;;;;;;52.58;36.17;;;18.90;1.00;;;;;;4991174;28;20125;-65
2023/05/09 09:57:45;;;;;;;51.20;35.20;;;18.80;1.00;;;;;;4973312;28;20167;-65
2023/05/09 10:00:14;;;;;;;53.08;36.88;;;18.60;1.00;;;;;;4988014;28;20130;-65
2023/05/09 10:02:59;;;;;;;50.85;35.40;;;18.50;1.00;;;;;;5004202;28;20070;-65
2023/05/09 10:05:27;;;;;;;50.20;35.42;;;18.40;1.00;;;;;;4989364;28;20454;-65
2023/05/09 10:07:58;;;;;;;49.28;33.97;;;18.20;1.00;;;;;;4975200;28;20060;-65
2023/05/09 10:10:33;;;;;;;51.88;37.78;;;18.30;1.00;;;;;;4972761;28;20049;-66
2023/05/09 10:13:03;;;;;;;46.75;33.63;;;18.20;1.00;;;;;;4988940;28;20658;-65
2023/05/09 10:15:30;;;;;;;51.55;36.80;;;18.20;1.00;;;;;;4990233;28;20046;-65
2023/05/09 10:17:59;;;;;;;47.10;34.13;;;18.10;1.00;;;;;;4974174;28;20049;-65
2023/05/09 10:20:27;;;;;;;48.15;35.17;;;18.10;1.00;;;;;;4989988;28;20049;-66
2023/05/09 10:22:55;;;;;;;52.20;37.17;;;18.00;1.00;;;;;;4989008;28;20416;-66
2023/05/09 10:25:24;;;;;;;49.72;36.22;;;18.10;1.00;;;;;;4972065;28;20088;-65
2023/05/09 10:27:54;;;;;;;51.28;36.00;;;18.10;13.50;;;;;;4971803;28;20374;-66
2023/05/09 10:30:39;;;;;;;45.95;35.05;;;18.10;22.10;;;;;;4987497;28;20046;-66
2023/05/09 10:33:11;;;;;;;45.85;33.50;;;18.20;1.00;;;;;;4976552;28;20459;-66
2023/05/09 10:35:45;;;;;;;43.17;32.63;;;18.30;27.60;;;;;;4970752;28;20120;-65
2023/05/09 10:38:11;;;;;;;44.55;32.95;;;18.50;30.10;;;;;;5010035;28;20076;-65
2023/05/09 10:40:39;;;;;;;40.25;32.63;;;18.70;1.00;;;;;;4973904;28;20057;-66
2023/05/09 10:43:08;;;;;;;43.50;32.17;;;18.70;1.00;;;;;;4966736;28;20531;-66
2023/05/09 10:45:34;;;;;;;40.00;32.55;;;18.90;1.00;;;;;;4955341;28;20140;-66
2023/05/09 10:48:02;;;;;;;40.75;31.60;;;19.00;1.00;;;;;;4970495;28;20092;-66
2023/05/09 10:50:30;;;;;;;41.70;32.45;;;19.00;1.00;;;;;;4971364;28;20057;-66
2023/05/09 10:53:07;;;;;;;40.60;33.25;;;19.20;1.00;;;;;;4972340;28;20074;-65
2023/05/09 10:55:49;;;;;;;42.38;32.22;;;19.20;1.00;;;;;;4970980;28;20046;-66
2023/05/09 10:58:25;;;;;;;39.10;30.70;;;19.10;1.00;;;;;;4973411;28;20707;-65
2023/05/09 11:00:54;;;;;;;41.97;30.00;;;18.90;1.00;;;;;;4987051;28;20311;-65
2023/05/09 11:03:21;;;;;;;39.78;32.17;;;18.60;1.00;;;;;;4971533;28;20101;-66
2023/05/09 11:05:49;;;;;;;45.53;34.03;;;18.30;1.00;;;;;;4988047;28;20133;-65
2023/05/09 11:08:20;;;;;;;46.13;33.90;;;18.20;1.00;;;;;;4956798;28;20327;-65
2023/05/09 11:10:46;;;;;;;45.45;33.83;;;18.10;1.00;;;;;;4972970;28;20443;-65
2023/05/09 11:13:12;;;;;;;46.97;34.13;;;18.00;1.00;;;;;;4987730;28;20393;-66
2023/05/09 11:15:57;;;;;;;42.90;33.10;;;17.90;20.80;;;;;;4987722;28;20046;-65
2023/05/09 11:18:23;;;;;;;45.00;32.22;;;17.90;35.30;;;;;;4947917;28;20279;-66
2023/05/09 11:20:50;;;;;;;46.47;33.95;;;18.00;38.80;;;;;;4986480;28;20317;-66
2023/05/09 11:23:20;;;;;;;45.22;35.60;;;18.00;13.10;;;;;;4954983;28;20046;-66
2023/05/09 11:25:47;;;;;;;50.70;36.85;;;18.00;49.50;;;;;;4971749;28;20054;-66
2023/05/09 11:28:34;;;;;;;51.92;36.95;;;18.10;48.50;;;;;;4990982;28;20045;-66
2023/05/09 11:31:15;;;;;;;53.20;36.30;;;18.10;53.40;;;;;;4988688;28;20045;-65
2023/05/09 11:33:43;;;;;;;52.10;36.22;;;18.20;30.80;;;;;;4990514;28;20050;-66
2023/05/09 11:36:31;;;;;;;45.65;33.28;;;18.20;12.70;;;;;;4990096;28;20460;-66
2023/05/09 11:39:05;;;;;;;52.88;37.10;;;18.20;25.70;;;;;;4989694;28;20033;-66
2023/05/09 11:41:41;;;;;;;49.95;34.58;;;18.20;39.40;;;;;;4972934;28;20154;-66
2023/05/09 11:44:20;;;;;;;53.65;37.15;;;18.20;31.70;;;;;;4974945;28;20046;-66
2023/05/09 11:46:47;;;;;;;52.15;36.00;;;18.00;55.80;;;;;;5007631;28;20718;-66
2023/05/09 11:49:14;;;;;;;50.95;37.13;;;17.90;14.50;;;;;;4960246;28;20497;-66
2023/05/09 11:51:40;;;;;;;52.63;37.88;;;17.80;30.60;;;;;;4977644;28;20042;-66
2023/05/09 11:54:07;;;;;;;52.17;35.90;;;17.60;64.90;;;;;;4991865;28;20048;-66
2023/05/09 11:56:38;;;;;;;52.15;37.10;;;17.50;96.30;;;;;;4976728;28;20124;-66
2023/05/09 11:59:05;;;;;;;52.70;35.38;;;17.50;99.90;;;;;;4991298;28;20045;-65
2023/05/09 12:01:31;;;;;;;57.67;38.20;;;17.60;99.90;;;;;;4958114;28;20112;-66
2023/05/09 12:03:57;;;;;;;52.17;36.70;;;17.60;99.90;;;;;;5022126;28;20454;-66
2023/05/09 12:06:24;;;;;;;58.10;39.35;;;17.70;99.90;;;;;;4977301;28;20053;-65
2023/05/09 12:08:50;;;;;;;62.10;40.90;;;17.70;99.90;;;;;;4965323;28;20557;-66
2023/05/09 12:11:17;;;;;;;57.00;39.80;;;17.70;99.90;;;;;;5012404;28;20325;-65
2023/05/09 12:13:51;;;;;;;58.45;40.42;;;17.80;99.90;;;;;;4977849;28;20434;-66
2023/05/09 12:16:18;;;;;;;59.33;40.13;;;17.80;99.90;;;;;;4995473;28;20619;-67
2023/05/09 12:18:48;;;;;;;57.45;38.75;;;17.90;99.90;;;;;;4981574;28;20045;-66
2023/05/09 12:21:16;;;;;;;57.58;38.28;;;18.10;95.70;;;;;;4962543;28;20051;-66
2023/05/09 12:23:42;;;;;;;58.38;39.47;;;18.20;91.30;;;;;;4996328;28;20093;-65
2023/05/09 12:26:08;;;;;;;55.22;38.30;;;18.40;92.80;;;;;;4982556;28;20410;-66
2023/05/09 12:28:35;;;;;;;58.05;38.08;;;18.70;72.40;;;;;;4977206;28;20409;-66
2023/05/09 12:31:01;;;;;;;57.10;38.65;;;18.80;1.00;;;;;;5012381;28;20046;-66
2023/05/09 12:33:27;;;;;;;53.38;36.88;;;19.10;1.00;;;;;;4986765;28;20060;-66
2023/05/09 12:36:07;;;;;;;55.53;37.83;;;19.20;1.00;;;;;;4995155;28;20527;-65
2023/05/09 12:38:33;;;;;;;56.28;37.90;;;19.30;1.00;;;;;;4994018;28;20104;-66
2023/05/09 12:41:06;;;;;;;54.17;37.22;;;19.40;1.00;;;;;;4993510;28;20270;-65